sensor_id;sensor_type;location;lat;lon;timestamp;temperature;humidity
65291;SHT30;51893;59.754;10.110;2024-02-26T00:00:33;2.40;84.63
65291;SHT30;51893;59.754;10.110;2024-02-26T00:03:22;2.38;84.78
65291;SHT30;51893;59.754;10.110;2024-02-26T00:05:50;2.39;84.81
65291;SHT30;51893;59.754;10.110;2024-02-26T00:08:18;2.37;84.95
65291;SHT30;51893;59.754;10.110;2024-02-26T00:10:46;2.37;85.01
65291;SHT30;51893;59.754;10.110;2024-02-26T00:13:14;2.35;85.14
65291;SHT30;51893;59.754;10.110;2024-02-26T00:15:42;2.34;85.20
65291;SHT30;51893;59.754;10.110;2024-02-26T00:18:11;2.31;85.31
65291;SHT30;51893;59.754;10.110;2024-02-26T00:20:40;2.28;85.52
65291;SHT30;51893;59.754;10.110;2024-02-26T00:23:10;2.32;85.67
65291;SHT30;51893;59.754;10.110;2024-02-26T00:25:39;2.35;85.80
65291;SHT30;51893;59.754;10.110;2024-02-26T00:28:07;2.43;85.89
65291;SHT30;51893;59.754;10.110;2024-02-26T00:30:35;2.51;85.84
65291;SHT30;51893;59.754;10.110;2024-02-26T00:33:05;2.51;85.72
65291;SHT30;51893;59.754;10.110;2024-02-26T00:35:33;2.50;85.70
65291;SHT30;51893;59.754;10.110;2024-02-26T00:38:01;2.46;85.64
65291;SHT30;51893;59.754;10.110;2024-02-26T00:40:31;2.42;85.63
65291;SHT30;51893;59.754;10.110;2024-02-26T00:43:00;2.39;85.65
65291;SHT30;51893;59.754;10.110;2024-02-26T00:45:28;2.35;85.66
65291;SHT30;51893;59.754;10.110;2024-02-26T00:47:56;2.34;85.74
65291;SHT30;51893;59.754;10.110;2024-02-26T00:50:24;2.33;85.80
65291;SHT30;51893;59.754;10.110;2024-02-26T00:52:52;2.30;85.73
65291;SHT30;51893;59.754;10.110;2024-02-26T00:55:21;2.24;85.76
65291;SHT30;51893;59.754;10.110;2024-02-26T00:57:49;2.17;85.83
65291;SHT30;51893;59.754;10.110;2024-02-26T01:00:17;2.16;85.96
65291;SHT30;51893;59.754;10.110;2024-02-26T01:02:46;2.20;85.93
65291;SHT30;51893;59.754;10.110;2024-02-26T01:05:15;2.20;85.88
65291;SHT30;51893;59.754;10.110;2024-02-26T01:07:44;2.17;85.88
65291;SHT30;51893;59.754;10.110;2024-02-26T01:10:12;2.17;85.99
65291;SHT30;51893;59.754;10.110;2024-02-26T01:12:40;2.21;85.94
65291;SHT30;51893;59.754;10.110;2024-02-26T01:15:08;2.22;85.90
65291;SHT30;51893;59.754;10.110;2024-02-26T01:17:37;2.21;85.90
65291;SHT30;51893;59.754;10.110;2024-02-26T01:20:06;2.21;85.96
65291;SHT30;51893;59.754;10.110;2024-02-26T01:22:36;2.22;85.99
65291;SHT30;51893;59.754;10.110;2024-02-26T01:25:04;2.33;86.02
65291;SHT30;51893;59.754;10.110;2024-02-26T01:27:33;2.42;85.85
65291;SHT30;51893;59.754;10.110;2024-02-26T01:30:04;2.41;85.70
65291;SHT30;51893;59.754;10.110;2024-02-26T01:32:33;2.42;85.67
65291;SHT30;51893;59.754;10.110;2024-02-26T01:35:04;2.42;85.65
65291;SHT30;51893;59.754;10.110;2024-02-26T01:37:38;2.42;85.57
65291;SHT30;51893;59.754;10.110;2024-02-26T01:40:07;2.43;85.52
65291;SHT30;51893;59.754;10.110;2024-02-26T01:42:40;2.44;85.44
65291;SHT30;51893;59.754;10.110;2024-02-26T01:45:16;2.39;85.30
65291;SHT30;51893;59.754;10.110;2024-02-26T01:47:52;2.35;85.21
65291;SHT30;51893;59.754;10.110;2024-02-26T01:50:22;2.36;85.16
65291;SHT30;51893;59.754;10.110;2024-02-26T01:52:54;2.37;85.10
65291;SHT30;51893;59.754;10.110;2024-02-26T01:55:23;2.40;84.96
65291;SHT30;51893;59.754;10.110;2024-02-26T01:57:54;2.41;84.89
65291;SHT30;51893;59.754;10.110;2024-02-26T02:00:23;2.41;84.82
65291;SHT30;51893;59.754;10.110;2024-02-26T02:02:52;2.40;84.72
65291;SHT30;51893;59.754;10.110;2024-02-26T02:05:22;2.39;84.60
65291;SHT30;51893;59.754;10.110;2024-02-26T02:07:53;2.39;84.50
65291;SHT30;51893;59.754;10.110;2024-02-26T02:10:21;2.35;84.35
65291;SHT30;51893;59.754;10.110;2024-02-26T02:12:53;2.25;84.06
65291;SHT30;51893;59.754;10.110;2024-02-26T02:15:21;2.18;83.92
65291;SHT30;51893;59.754;10.110;2024-02-26T02:17:50;2.09;83.74
65291;SHT30;51893;59.754;10.110;2024-02-26T02:20:18;2.03;83.68
65291;SHT30;51893;59.754;10.110;2024-02-26T02:22:52;1.99;83.60
65291;SHT30;51893;59.754;10.110;2024-02-26T02:25:20;1.93;83.55
65291;SHT30;51893;59.754;10.110;2024-02-26T02:27:48;1.90;83.57
65291;SHT30;51893;59.754;10.110;2024-02-26T02:30:16;1.91;83.64
65291;SHT30;51893;59.754;10.110;2024-02-26T02:32:44;1.88;83.64
65291;SHT30;51893;59.754;10.110;2024-02-26T02:35:12;1.87;83.77
65291;SHT30;51893;59.754;10.110;2024-02-26T02:37:41;1.87;83.80
65291;SHT30;51893;59.754;10.110;2024-02-26T02:40:09;1.83;83.79
65291;SHT30;51893;59.754;10.110;2024-02-26T02:42:37;1.80;83.79
65291;SHT30;51893;59.754;10.110;2024-02-26T02:45:05;1.76;83.74
65291;SHT30;51893;59.754;10.110;2024-02-26T02:47:37;1.73;83.66
65291;SHT30;51893;59.754;10.110;2024-02-26T02:50:07;1.68;83.53
65291;SHT30;51893;59.754;10.110;2024-02-26T02:52:36;1.72;83.59
65291;SHT30;51893;59.754;10.110;2024-02-26T02:55:04;1.72;83.34
65291;SHT30;51893;59.754;10.110;2024-02-26T02:57:32;1.67;83.19
65291;SHT30;51893;59.754;10.110;2024-02-26T03:00:00;1.65;83.15
65291;SHT30;51893;59.754;10.110;2024-02-26T03:02:31;1.56;82.95
65291;SHT30;51893;59.754;10.110;2024-02-26T03:04:59;1.50;82.92
65291;SHT30;51893;59.754;10.110;2024-02-26T03:07:28;1.42;82.71
65291;SHT30;51893;59.754;10.110;2024-02-26T03:09:56;1.38;82.60
65291;SHT30;51893;59.754;10.110;2024-02-26T03:12:25;1.29;82.22
65291;SHT30;51893;59.754;10.110;2024-02-26T03:14:57;1.13;82.13
65291;SHT30;51893;59.754;10.110;2024-02-26T03:17:26;1.04;82.28
65291;SHT30;51893;59.754;10.110;2024-02-26T03:19:54;0.99;82.34
65291;SHT30;51893;59.754;10.110;2024-02-26T03:22:22;0.92;82.35
65291;SHT30;51893;59.754;10.110;2024-02-26T03:24:50;0.88;82.39
65291;SHT30;51893;59.754;10.110;2024-02-26T03:27:18;0.85;82.38
65291;SHT30;51893;59.754;10.110;2024-02-26T03:29:46;0.77;82.36
65291;SHT30;51893;59.754;10.110;2024-02-26T03:32:17;0.72;82.48
65291;SHT30;51893;59.754;10.110;2024-02-26T03:34:45;0.69;82.50
65291;SHT30;51893;59.754;10.110;2024-02-26T03:37:13;0.65;82.53
65291;SHT30;51893;59.754;10.110;2024-02-26T03:39:43;0.61;82.51
65291;SHT30;51893;59.754;10.110;2024-02-26T03:42:11;0.59;82.62
65291;SHT30;51893;59.754;10.110;2024-02-26T03:44:39;0.58;82.65
65291;SHT30;51893;59.754;10.110;2024-02-26T03:47:07;0.54;82.73
65291;SHT30;51893;59.754;10.110;2024-02-26T03:49:35;0.56;82.76
65291;SHT30;51893;59.754;10.110;2024-02-26T03:52:03;0.61;82.77
65291;SHT30;51893;59.754;10.110;2024-02-26T03:54:33;0.63;82.66
65291;SHT30;51893;59.754;10.110;2024-02-26T03:57:02;0.60;82.54
65291;SHT30;51893;59.754;10.110;2024-02-26T03:59:30;0.55;82.59
65291;SHT30;51893;59.754;10.110;2024-02-26T04:01:58;0.54;82.78
65291;SHT30;51893;59.754;10.110;2024-02-26T04:04:29;0.56;82.93
65291;SHT30;51893;59.754;10.110;2024-02-26T04:06:57;0.55;82.87
65291;SHT30;51893;59.754;10.110;2024-02-26T04:09:25;0.55;82.92
65291;SHT30;51893;59.754;10.110;2024-02-26T04:11:56;0.57;83.05
65291;SHT30;51893;59.754;10.110;2024-02-26T04:14:24;0.59;83.00
65291;SHT30;51893;59.754;10.110;2024-02-26T04:16:52;0.62;83.03
65291;SHT30;51893;59.754;10.110;2024-02-26T04:19:21;0.68;83.02
65291;SHT30;51893;59.754;10.110;2024-02-26T04:21:50;0.65;82.81
65291;SHT30;51893;59.754;10.110;2024-02-26T04:24:19;0.66;82.90
65291;SHT30;51893;59.754;10.110;2024-02-26T04:26:47;0.69;82.90
65291;SHT30;51893;59.754;10.110;2024-02-26T04:29:17;0.69;82.86
65291;SHT30;51893;59.754;10.110;2024-02-26T04:31:45;0.60;82.70
65291;SHT30;51893;59.754;10.110;2024-02-26T04:34:14;0.52;82.89
65291;SHT30;51893;59.754;10.110;2024-02-26T04:36:42;0.51;83.08
65291;SHT30;51893;59.754;10.110;2024-02-26T04:39:10;0.47;83.10
65291;SHT30;51893;59.754;10.110;2024-02-26T04:41:38;0.40;83.21
65291;SHT30;51893;59.754;10.110;2024-02-26T04:44:09;0.37;83.34
65291;SHT30;51893;59.754;10.110;2024-02-26T04:46:37;0.31;83.54
65291;SHT30;51893;59.754;10.110;2024-02-26T04:49:05;0.33;83.65
65291;SHT30;51893;59.754;10.110;2024-02-26T04:51:34;0.38;83.71
65291;SHT30;51893;59.754;10.110;2024-02-26T04:54:02;0.45;83.66
65291;SHT30;51893;59.754;10.110;2024-02-26T04:56:31;0.45;83.51
65291;SHT30;51893;59.754;10.110;2024-02-26T04:58:59;0.43;83.44
65291;SHT30;51893;59.754;10.110;2024-02-26T05:01:27;0.37;83.48
65291;SHT30;51893;59.754;10.110;2024-02-26T05:03:56;0.37;83.60
65291;SHT30;51893;59.754;10.110;2024-02-26T05:06:24;0.29;83.71
65291;SHT30;51893;59.754;10.110;2024-02-26T05:08:53;0.27;83.82
65291;SHT30;51893;59.754;10.110;2024-02-26T05:11:22;0.30;83.89
65291;SHT30;51893;59.754;10.110;2024-02-26T05:13:50;0.37;83.85
65291;SHT30;51893;59.754;10.110;2024-02-26T05:16:18;0.45;83.69
65291;SHT30;51893;59.754;10.110;2024-02-26T05:18:49;0.42;83.48
65291;SHT30;51893;59.754;10.110;2024-02-26T05:21:17;0.39;83.39
65291;SHT30;51893;59.754;10.110;2024-02-26T05:23:45;0.34;83.40
65291;SHT30;51893;59.754;10.110;2024-02-26T05:26:20;0.29;83.53
65291;SHT30;51893;59.754;10.110;2024-02-26T05:28:50;0.26;83.66
65291;SHT30;51893;59.754;10.110;2024-02-26T05:31:18;0.20;83.60
65291;SHT30;51893;59.754;10.110;2024-02-26T05:33:46;0.17;83.81
65291;SHT30;51893;59.754;10.110;2024-02-26T05:36:18;0.15;83.91
65291;SHT30;51893;59.754;10.110;2024-02-26T05:38:49;0.09;84.00
65291;SHT30;51893;59.754;10.110;2024-02-26T05:41:18;0.17;84.06
65291;SHT30;51893;59.754;10.110;2024-02-26T05:43:53;0.23;83.90
65291;SHT30;51893;59.754;10.110;2024-02-26T05:46:22;0.28;83.81
65291;SHT30;51893;59.754;10.110;2024-02-26T05:48:51;0.32;83.76
65291;SHT30;51893;59.754;10.110;2024-02-26T05:51:21;0.32;83.71
65291;SHT30;51893;59.754;10.110;2024-02-26T05:53:50;0.31;83.72
65291;SHT30;51893;59.754;10.110;2024-02-26T05:56:22;0.31;83.76
65291;SHT30;51893;59.754;10.110;2024-02-26T05:58:50;0.33;83.64
65291;SHT30;51893;59.754;10.110;2024-02-26T06:01:21;0.30;83.45
65291;SHT30;51893;59.754;10.110;2024-02-26T06:03:51;0.25;83.24
65291;SHT30;51893;59.754;10.110;2024-02-26T06:06:22;0.22;83.21
65291;SHT30;51893;59.754;10.110;2024-02-26T06:08:51;0.18;83.21
65291;SHT30;51893;59.754;10.110;2024-02-26T06:11:20;0.10;83.24
65291;SHT30;51893;59.754;10.110;2024-02-26T06:13:51;0.05;83.26
65291;SHT30;51893;59.754;10.110;2024-02-26T06:16:19;-0.01;83.20
65291;SHT30;51893;59.754;10.110;2024-02-26T06:18:47;-0.09;83.33
65291;SHT30;51893;59.754;10.110;2024-02-26T06:21:15;-0.06;83.51
65291;SHT30;51893;59.754;10.110;2024-02-26T06:23:43;-0.05;83.40
65291;SHT30;51893;59.754;10.110;2024-02-26T06:26:12;-0.03;83.44
65291;SHT30;51893;59.754;10.110;2024-02-26T06:28:40;-0.01;83.38
65291;SHT30;51893;59.754;10.110;2024-02-26T06:31:09;0.02;83.47
65291;SHT30;51893;59.754;10.110;2024-02-26T06:33:37;0.01;83.27
65291;SHT30;51893;59.754;10.110;2024-02-26T06:36:05;-0.00;83.24
65291;SHT30;51893;59.754;10.110;2024-02-26T06:38:34;0.00;83.33
65291;SHT30;51893;59.754;10.110;2024-02-26T06:41:02;0.05;83.32
65291;SHT30;51893;59.754;10.110;2024-02-26T06:43:31;0.06;83.12
65291;SHT30;51893;59.754;10.110;2024-02-26T06:45:59;0.08;83.16
65291;SHT30;51893;59.754;10.110;2024-02-26T06:48:27;0.05;83.04
65291;SHT30;51893;59.754;10.110;2024-02-26T06:50:55;0.07;83.19
65291;SHT30;51893;59.754;10.110;2024-02-26T06:53:24;0.07;83.20
65291;SHT30;51893;59.754;10.110;2024-02-26T06:55:53;0.05;83.22
65291;SHT30;51893;59.754;10.110;2024-02-26T06:58:22;0.09;83.28
65291;SHT30;51893;59.754;10.110;2024-02-26T07:00:53;0.10;83.14
65291;SHT30;51893;59.754;10.110;2024-02-26T07:03:21;0.13;83.10
65291;SHT30;51893;59.754;10.110;2024-02-26T07:05:51;0.15;83.04
65291;SHT30;51893;59.754;10.110;2024-02-26T07:08:21;0.17;82.99
65291;SHT30;51893;59.754;10.110;2024-02-26T07:10:49;0.18;82.92
65291;SHT30;51893;59.754;10.110;2024-02-26T07:13:17;0.23;82.88
65291;SHT30;51893;59.754;10.110;2024-02-26T07:15:45;0.28;82.87
65291;SHT30;51893;59.754;10.110;2024-02-26T07:18:14;0.31;82.72
65291;SHT30;51893;59.754;10.110;2024-02-26T07:20:43;0.30;82.50
65291;SHT30;51893;59.754;10.110;2024-02-26T07:23:11;0.31;82.48
65291;SHT30;51893;59.754;10.110;2024-02-26T07:25:40;0.33;82.42
65291;SHT30;51893;59.754;10.110;2024-02-26T07:28:11;0.39;82.40
65291;SHT30;51893;59.754;10.110;2024-02-26T07:30:40;0.43;82.25
65291;SHT30;51893;59.754;10.110;2024-02-26T07:33:07;0.45;82.16
65291;SHT30;51893;59.754;10.110;2024-02-26T07:35:36;0.47;82.07
65291;SHT30;51893;59.754;10.110;2024-02-26T07:38:06;0.45;81.99
65291;SHT30;51893;59.754;10.110;2024-02-26T07:40:49;0.45;81.95
65291;SHT30;51893;59.754;10.110;2024-02-26T07:43:29;0.46;82.01
65291;SHT30;51893;59.754;10.110;2024-02-26T07:45:57;0.52;82.07
65291;SHT30;51893;59.754;10.110;2024-02-26T07:48:25;0.59;82.08
65291;SHT30;51893;59.754;10.110;2024-02-26T07:50:55;0.67;81.95
65291;SHT30;51893;59.754;10.110;2024-02-26T07:53:25;0.72;81.86
65291;SHT30;51893;59.754;10.110;2024-02-26T07:55:53;0.75;81.67
65291;SHT30;51893;59.754;10.110;2024-02-26T07:58:22;0.71;81.41
65291;SHT30;51893;59.754;10.110;2024-02-26T08:00:53;0.69;81.38
65291;SHT30;51893;59.754;10.110;2024-02-26T08:03:21;0.73;81.53
65291;SHT30;51893;59.754;10.110;2024-02-26T08:05:51;0.75;81.41
65291;SHT30;51893;59.754;10.110;2024-02-26T08:08:20;0.77;81.40
65291;SHT30;51893;59.754;10.110;2024-02-26T08:10:50;0.85;81.44
65291;SHT30;51893;59.754;10.110;2024-02-26T08:13:19;0.90;81.26
65291;SHT30;51893;59.754;10.110;2024-02-26T08:15:47;0.91;81.09
65291;SHT30;51893;59.754;10.110;2024-02-26T08:18:15;0.95;81.01
65291;SHT30;51893;59.754;10.110;2024-02-26T08:20:44;1.00;80.97
65291;SHT30;51893;59.754;10.110;2024-02-26T08:23:13;0.97;80.78
65291;SHT30;51893;59.754;10.110;2024-02-26T08:25:44;0.97;80.69
65291;SHT30;51893;59.754;10.110;2024-02-26T08:28:12;0.92;80.19
65291;SHT30;51893;59.754;10.110;2024-02-26T08:30:42;0.88;80.12
65291;SHT30;51893;59.754;10.110;2024-02-26T08:33:11;0.86;80.06
65291;SHT30;51893;59.754;10.110;2024-02-26T08:35:41;0.87;80.05
65291;SHT30;51893;59.754;10.110;2024-02-26T08:38:10;0.89;80.12
65291;SHT30;51893;59.754;10.110;2024-02-26T08:40:40;0.87;79.97
65291;SHT30;51893;59.754;10.110;2024-02-26T08:43:08;0.87;80.04
65291;SHT30;51893;59.754;10.110;2024-02-26T08:45:37;0.91;80.12
65291;SHT30;51893;59.754;10.110;2024-02-26T08:48:06;1.01;80.25
65291;SHT30;51893;59.754;10.110;2024-02-26T08:50:35;1.09;80.06
65291;SHT30;51893;59.754;10.110;2024-02-26T08:53:06;1.22;80.08
65291;SHT30;51893;59.754;10.110;2024-02-26T08:55:35;1.36;79.95
65291;SHT30;51893;59.754;10.110;2024-02-26T08:58:02;1.47;79.72
65291;SHT30;51893;59.754;10.110;2024-02-26T09:00:31;1.53;79.43
65291;SHT30;51893;59.754;10.110;2024-02-26T09:02:59;1.51;78.99
65291;SHT30;51893;59.754;10.110;2024-02-26T09:05:33;1.47;78.76
65291;SHT30;51893;59.754;10.110;2024-02-26T09:08:01;1.47;78.72
65291;SHT30;51893;59.754;10.110;2024-02-26T09:10:29;1.47;78.72
65291;SHT30;51893;59.754;10.110;2024-02-26T09:12:59;1.50;78.67
65291;SHT30;51893;59.754;10.110;2024-02-26T09:15:27;1.50;78.28
65291;SHT30;51893;59.754;10.110;2024-02-26T09:17:56;1.46;78.09
65291;SHT30;51893;59.754;10.110;2024-02-26T09:20:25;1.43;78.22
65291;SHT30;51893;59.754;10.110;2024-02-26T09:22:53;1.54;78.29
65291;SHT30;51893;59.754;10.110;2024-02-26T09:25:22;1.64;78.10
65291;SHT30;51893;59.754;10.110;2024-02-26T09:27:52;1.67;77.59
65291;SHT30;51893;59.754;10.110;2024-02-26T09:30:23;1.77;77.79
65291;SHT30;51893;59.754;10.110;2024-02-26T09:32:52;1.85;77.66
65291;SHT30;51893;59.754;10.110;2024-02-26T09:35:22;1.97;77.85
65291;SHT30;51893;59.754;10.110;2024-02-26T09:37:51;2.10;78.09
65291;SHT30;51893;59.754;10.110;2024-02-26T09:40:20;2.61;81.13
65291;SHT30;51893;59.754;10.110;2024-02-26T09:42:48;2.53;78.33
65291;SHT30;51893;59.754;10.110;2024-02-26T09:45:23;2.53;77.69
65291;SHT30;51893;59.754;10.110;2024-02-26T09:47:56;2.56;76.85
65291;SHT30;51893;59.754;10.110;2024-02-26T09:50:25;2.50;76.24
65291;SHT30;51893;59.754;10.110;2024-02-26T09:52:53;2.54;76.54
65291;SHT30;51893;59.754;10.110;2024-02-26T09:55:23;2.61;76.59
65291;SHT30;51893;59.754;10.110;2024-02-26T09:57:51;2.53;76.01
65291;SHT30;51893;59.754;10.110;2024-02-26T10:00:20;2.50;76.16
65291;SHT30;51893;59.754;10.110;2024-02-26T10:02:52;2.48;75.98
65291;SHT30;51893;59.754;10.110;2024-02-26T10:05:25;2.56;75.97
65291;SHT30;51893;59.754;10.110;2024-02-26T10:07:54;2.58;76.05
65291;SHT30;51893;59.754;10.110;2024-02-26T10:10:25;2.54;75.24
65291;SHT30;51893;59.754;10.110;2024-02-26T10:12:56;2.47;75.39
65291;SHT30;51893;59.754;10.110;2024-02-26T10:15:27;2.52;75.65
65291;SHT30;51893;59.754;10.110;2024-02-26T10:17:55;2.57;75.75
65291;SHT30;51893;59.754;10.110;2024-02-26T10:20:24;2.57;75.04
65291;SHT30;51893;59.754;10.110;2024-02-26T10:22:55;2.60;75.41
65291;SHT30;51893;59.754;10.110;2024-02-26T10:25:24;2.58;74.56
65291;SHT30;51893;59.754;10.110;2024-02-26T10:27:53;2.64;75.31
65291;SHT30;51893;59.754;10.110;2024-02-26T10:30:24;2.72;75.20
65291;SHT30;51893;59.754;10.110;2024-02-26T10:32:54;2.79;74.99
65291;SHT30;51893;59.754;10.110;2024-02-26T10:35:23;2.81;74.71
65291;SHT30;51893;59.754;10.110;2024-02-26T10:37:52;2.86;74.82
65291;SHT30;51893;59.754;10.110;2024-02-26T10:40:21;3.00;74.82
65291;SHT30;51893;59.754;10.110;2024-02-26T10:42:50;3.11;74.83
65291;SHT30;51893;59.754;10.110;2024-02-26T10:45:18;3.24;74.64
65291;SHT30;51893;59.754;10.110;2024-02-26T10:47:49;3.33;74.02
65291;SHT30;51893;59.754;10.110;2024-02-26T10:50:19;3.24;73.30
65291;SHT30;51893;59.754;10.110;2024-02-26T10:52:50;3.26;73.53
65291;SHT30;51893;59.754;10.110;2024-02-26T10:55:19;3.30;73.84
65291;SHT30;51893;59.754;10.110;2024-02-26T10:57:52;3.42;73.67
65291;SHT30;51893;59.754;10.110;2024-02-26T11:00:21;3.47;73.54
65291;SHT30;51893;59.754;10.110;2024-02-26T11:02:50;3.54;73.05
65291;SHT30;51893;59.754;10.110;2024-02-26T11:05:20;3.46;71.79
65291;SHT30;51893;59.754;10.110;2024-02-26T11:07:50;3.43;72.35
65291;SHT30;51893;59.754;10.110;2024-02-26T11:10:20;3.51;71.72
65291;SHT30;51893;59.754;10.110;2024-02-26T11:12:50;3.61;72.59
65291;SHT30;51893;59.754;10.110;2024-02-26T11:15:22;3.71;72.26
65291;SHT30;51893;59.754;10.110;2024-02-26T11:17:52;3.78;72.02
65291;SHT30;51893;59.754;10.110;2024-02-26T11:20:21;3.84;72.12
65291;SHT30;51893;59.754;10.110;2024-02-26T11:22:51;3.92;71.64
65291;SHT30;51893;59.754;10.110;2024-02-26T11:25:19;3.95;72.09
65291;SHT30;51893;59.754;10.110;2024-02-26T11:27:49;4.10;71.92
65291;SHT30;51893;59.754;10.110;2024-02-26T11:30:22;4.12;71.52
65291;SHT30;51893;59.754;10.110;2024-02-26T11:32:54;4.24;71.55
65291;SHT30;51893;59.754;10.110;2024-02-26T11:35:23;4.28;70.93
65291;SHT30;51893;59.754;10.110;2024-02-26T11:37:53;4.34;70.89
65291;SHT30;51893;59.754;10.110;2024-02-26T11:40:25;4.39;71.00
65291;SHT30;51893;59.754;10.110;2024-02-26T11:42:54;4.50;70.85
65291;SHT30;51893;59.754;10.110;2024-02-26T11:48:20;4.80;70.27
65291;SHT30;51893;59.754;10.110;2024-02-26T11:50:52;4.82;69.28
65291;SHT30;51893;59.754;10.110;2024-02-26T11:53:30;4.78;69.55
65291;SHT30;51893;59.754;10.110;2024-02-26T11:58:59;4.91;69.32
65291;SHT30;51893;59.754;10.110;2024-02-26T12:01:48;5.03;69.26
65291;SHT30;51893;59.754;10.110;2024-02-26T12:04:19;5.07;68.81
65291;SHT30;51893;59.754;10.110;2024-02-26T12:06:56;5.15;68.25
65291;SHT30;51893;59.754;10.110;2024-02-26T12:09:38;5.02;67.22
65291;SHT30;51893;59.754;10.110;2024-02-26T12:12:09;5.01;68.09
65291;SHT30;51893;59.754;10.110;2024-02-26T12:14:52;5.09;68.23
65291;SHT30;51893;59.754;10.110;2024-02-26T12:17:24;5.22;68.24
65291;SHT30;51893;59.754;10.110;2024-02-26T12:19:54;5.16;67.26
65291;SHT30;51893;59.754;10.110;2024-02-26T12:22:23;5.06;66.95
65291;SHT30;51893;59.754;10.110;2024-02-26T12:25:00;5.01;66.98
65291;SHT30;51893;59.754;10.110;2024-02-26T12:27:31;4.94;66.68
65291;SHT30;51893;59.754;10.110;2024-02-26T12:30:01;4.89;66.25
65291;SHT30;51893;59.754;10.110;2024-02-26T12:32:31;4.78;66.19
65291;SHT30;51893;59.754;10.110;2024-02-26T12:35:00;4.77;66.55
65291;SHT30;51893;59.754;10.110;2024-02-26T12:37:29;4.74;66.14
65291;SHT30;51893;59.754;10.110;2024-02-26T12:39:58;4.76;66.07
65291;SHT30;51893;59.754;10.110;2024-02-26T12:42:27;4.76;66.18
65291;SHT30;51893;59.754;10.110;2024-02-26T12:44:55;4.82;66.28
65291;SHT30;51893;59.754;10.110;2024-02-26T12:47:23;4.78;65.71
65291;SHT30;51893;59.754;10.110;2024-02-26T12:49:51;4.80;66.07
65291;SHT30;51893;59.754;10.110;2024-02-26T12:52:19;4.86;66.07
65291;SHT30;51893;59.754;10.110;2024-02-26T12:54:50;5.05;66.37
65291;SHT30;51893;59.754;10.110;2024-02-26T12:57:19;5.17;66.49
65291;SHT30;51893;59.754;10.110;2024-02-26T12:59:47;5.30;66.41
65291;SHT30;51893;59.754;10.110;2024-02-26T13:02:17;5.29;66.03
65291;SHT30;51893;59.754;10.110;2024-02-26T13:04:46;5.20;65.54
65291;SHT30;51893;59.754;10.110;2024-02-26T13:07:17;5.16;65.74
65291;SHT30;51893;59.754;10.110;2024-02-26T13:09:45;5.11;65.50
65291;SHT30;51893;59.754;10.110;2024-02-26T13:12:13;5.01;65.59
65291;SHT30;51893;59.754;10.110;2024-02-26T13:14:42;4.96;65.71
65291;SHT30;51893;59.754;10.110;2024-02-26T13:17:10;4.92;65.74
65291;SHT30;51893;59.754;10.110;2024-02-26T13:19:48;4.85;65.66
65291;SHT30;51893;59.754;10.110;2024-02-26T13:22:20;4.74;65.24
65291;SHT30;51893;59.754;10.110;2024-02-26T13:24:53;4.57;64.54
65291;SHT30;51893;59.754;10.110;2024-02-26T13:27:23;4.49;65.07
65291;SHT30;51893;59.754;10.110;2024-02-26T13:30:08;4.43;65.18
65291;SHT30;51893;59.754;10.110;2024-02-26T13:32:40;4.39;65.26
65291;SHT30;51893;59.754;10.110;2024-02-26T13:35:10;4.35;65.18
65291;SHT30;51893;59.754;10.110;2024-02-26T13:37:41;4.36;65.43
65291;SHT30;51893;59.754;10.110;2024-02-26T13:40:10;4.35;65.48
65291;SHT30;51893;59.754;10.110;2024-02-26T13:42:39;4.34;65.74
65291;SHT30;51893;59.754;10.110;2024-02-26T13:45:07;4.33;66.07
65291;SHT30;51893;59.754;10.110;2024-02-26T13:47:36;4.32;65.92
65291;SHT30;51893;59.754;10.110;2024-02-26T13:50:06;4.29;66.04
65291;SHT30;51893;59.754;10.110;2024-02-26T13:52:34;4.31;66.99
65291;SHT30;51893;59.754;10.110;2024-02-26T13:55:03;4.33;66.94
65291;SHT30;51893;59.754;10.110;2024-02-26T13:57:32;4.34;66.70
65291;SHT30;51893;59.754;10.110;2024-02-26T14:00:03;4.35;66.47
65291;SHT30;51893;59.754;10.110;2024-02-26T14:02:37;4.37;66.87
65291;SHT30;51893;59.754;10.110;2024-02-26T14:05:06;4.38;67.27
65291;SHT30;51893;59.754;10.110;2024-02-26T14:07:34;4.37;66.92
65291;SHT30;51893;59.754;10.110;2024-02-26T14:10:05;4.37;67.01
65291;SHT30;51893;59.754;10.110;2024-02-26T14:12:35;4.40;66.64
65291;SHT30;51893;59.754;10.110;2024-02-26T14:15:04;4.36;66.32
65291;SHT30;51893;59.754;10.110;2024-02-26T14:17:37;4.30;65.90
65291;SHT30;51893;59.754;10.110;2024-02-26T14:20:06;4.32;66.22
65291;SHT30;51893;59.754;10.110;2024-02-26T14:22:37;4.30;65.96
65291;SHT30;51893;59.754;10.110;2024-02-26T14:25:05;4.25;65.87
65291;SHT30;51893;59.754;10.110;2024-02-26T14:27:37;4.24;66.36
65291;SHT30;51893;59.754;10.110;2024-02-26T14:30:05;4.24;66.29
65291;SHT30;51893;59.754;10.110;2024-02-26T14:32:34;4.22;65.97
65291;SHT30;51893;59.754;10.110;2024-02-26T14:35:06;4.22;66.32
65291;SHT30;51893;59.754;10.110;2024-02-26T14:37:43;4.22;66.05
65291;SHT30;51893;59.754;10.110;2024-02-26T14:40:17;4.19;65.82
65291;SHT30;51893;59.754;10.110;2024-02-26T14:42:46;4.17;66.14
65291;SHT30;51893;59.754;10.110;2024-02-26T14:45:14;4.17;65.92
65291;SHT30;51893;59.754;10.110;2024-02-26T14:47:44;4.14;65.98
65291;SHT30;51893;59.754;10.110;2024-02-26T14:50:12;4.16;66.25
65291;SHT30;51893;59.754;10.110;2024-02-26T14:52:41;4.18;66.74
65291;SHT30;51893;59.754;10.110;2024-02-26T14:55:09;4.18;66.70
65291;SHT30;51893;59.754;10.110;2024-02-26T14:57:37;4.16;66.66
65291;SHT30;51893;59.754;10.110;2024-02-26T15:00:05;4.10;67.83
65291;SHT30;51893;59.754;10.110;2024-02-26T15:02:35;3.94;68.55
65291;SHT30;51893;59.754;10.110;2024-02-26T15:05:06;3.81;69.06
65291;SHT30;51893;59.754;10.110;2024-02-26T15:07:38;3.71;69.26
65291;SHT30;51893;59.754;10.110;2024-02-26T15:10:08;3.69;69.41
65291;SHT30;51893;59.754;10.110;2024-02-26T15:12:37;3.72;69.73
65291;SHT30;51893;59.754;10.110;2024-02-26T15:15:06;3.78;70.03
65291;SHT30;51893;59.754;10.110;2024-02-26T15:17:35;3.79;70.10
65291;SHT30;51893;59.754;10.110;2024-02-26T15:20:05;3.74;69.94
65291;SHT30;51893;59.754;10.110;2024-02-26T15:22:36;3.61;70.24
65291;SHT30;51893;59.754;10.110;2024-02-26T15:25:04;3.52;70.39
65291;SHT30;51893;59.754;10.110;2024-02-26T15:27:33;3.48;70.76
65291;SHT30;51893;59.754;10.110;2024-02-26T15:30:02;3.41;71.12
65291;SHT30;51893;59.754;10.110;2024-02-26T15:32:31;3.26;71.40
65291;SHT30;51893;59.754;10.110;2024-02-26T15:35:00;3.17;71.68
65291;SHT30;51893;59.754;10.110;2024-02-26T15:37:28;3.13;71.91
65291;SHT30;51893;59.754;10.110;2024-02-26T15:39:56;3.12;72.07
65291;SHT30;51893;59.754;10.110;2024-02-26T15:42:25;3.14;72.00
65291;SHT30;51893;59.754;10.110;2024-02-26T15:44:54;3.14;72.11
65291;SHT30;51893;59.754;10.110;2024-02-26T15:47:23;3.12;72.32
65291;SHT30;51893;59.754;10.110;2024-02-26T15:49:53;3.09;72.43